createdAt,value
2022-12-14T00:10:44.793Z,40.20
2022-12-14T00:41:33.847Z,38.20
2022-12-14T00:56:42.146Z,38.57
2022-12-14T01:12:11.441Z,36.40
2022-12-14T01:27:21.252Z,32.93
2022-12-14T01:42:29.182Z,35.73
2022-12-14T01:57:56.546Z,16.60
2022-12-14T02:13:06.015Z,13.30
2022-12-14T02:28:10.843Z,13.17
2022-12-14T02:43:30.762Z,12.50
2022-12-14T02:58:37.822Z,13.37
2022-12-14T03:13:49.593Z,11.53
2022-12-14T03:28:58.931Z,12.50
2022-12-14T03:44:12.522Z,12.50
2022-12-14T03:59:20.781Z,14.40
2022-12-14T04:14:49.377Z,8.80
2022-12-14T04:29:58.479Z,13.73
2022-12-14T04:45:15.194Z,12.83
2022-12-14T05:00:23.409Z,10.63
2022-12-14T09:46:13.804Z,18.20
2022-12-14T10:01:43.925Z,16.73
2022-12-14T10:33:47.121Z,14.70
2022-12-14T10:49:00.734Z,14.50
2022-12-14T11:04:06.660Z,14.23
2022-12-14T11:19:19.436Z,11.27
2022-12-14T11:34:30.293Z,17.67
2022-12-14T11:49:40.370Z,13.90
2022-12-14T12:04:47.563Z,13.13
2022-12-14T12:19:54.415Z,19.27
2022-12-14T12:35:12.158Z,14.53
2022-12-14T12:50:18.647Z,14.27
2022-12-14T13:05:46.189Z,13.73
2022-12-14T13:20:54.325Z,11.20
2022-12-14T13:36:17.071Z,17.20
2022-12-14T13:51:35.723Z,13.70
2022-12-14T14:06:50.250Z,12.27
2022-12-14T14:22:25.763Z,11.60
2022-12-14T14:37:34.306Z,10.90
2022-12-14T17:00:52.617Z,11.27
2022-12-14T19:36:46.937Z,19.37
2022-12-14T19:51:52.349Z,13.90
2022-12-14T20:07:02.436Z,15.43
2022-12-14T20:22:07.408Z,14.30
2022-12-14T20:37:12.626Z,11.00
2022-12-14T20:52:17.257Z,13.00
2022-12-14T21:07:26.119Z,10.17
2022-12-14T21:22:32.260Z,10.20
2022-12-14T21:37:46.617Z,9.13
2022-12-14T21:52:50.944Z,9.00
2022-12-14T22:07:56.050Z,13.53
2022-12-14T22:23:01.586Z,13.80
2022-12-14T22:38:06.186Z,18.47
2022-12-14T22:53:10.719Z,17.90
2022-12-14T23:08:15.117Z,15.57
2022-12-14T23:23:39.268Z,21.83
2022-12-14T23:39:13.081Z,21.30
2022-12-14T23:54:57.488Z,17.77
